Terminal Aerodrome Forecast
Issued by NWS Louisville, KY

Home | Current Version | Previous Version | Text Only | Print | Product List | Glossary On
Versions: 1 2 3 4 5 6 7 8 9 10 11 12 13 14 15 16 17 18
112
FTUS43 KLMK 090520
TAFSDF
TAF
KSDF 090520Z 0906/1012 28010KT 6SM -SHSN BKN025
     FM090900 28010KT P6SM VCSH FEW018 OVC025
     FM092000 28012G20KT 5SM -SHSN OVC025=

USA.gov is the U.S. government's official web portal to all federal, state and local government web resources and services.